Time;durP1;ratioP1;P1;durP2;ratioP2;P2;SDS_P1;SDS_P2;PMS_P1;PMS_P2;Temp;Humidity;BMP_temperature;BMP_pressure;BME280_temperature;BME280_humidity;BME280_pressure;Samples;Min_cycle;Max_cycle;Signal;HPM_P1;HPM_P2
2021/04/23 00:00:54;;;;;;;8.30;3.33;;;;;;;;;;12964711;22;20926;-75
2021/04/23 00:05:57;;;;;;;8.57;3.30;;;;;;;;;;12946106;22;20221;-74
2021/04/23 00:11:01;;;;;;;8.33;3.00;;;;;;;;;;12965241;22;20189;-74
2021/04/23 00:16:03;;;;;;;11.57;3.33;;;;;;;;;;12961763;22;20178;-74
2021/04/23 00:21:05;;;;;;;10.63;3.13;;;;;;;;;;12945235;22;20175;-75
2021/04/23 00:26:08;;;;;;;9.93;4.10;;;;;;;;;;12942979;22;20205;-74
2021/04/23 00:31:10;;;;;;;10.63;3.60;;;;;;;;;;12942689;22;20179;-74
2021/04/23 00:36:12;;;;;;;10.40;3.20;;;;;;;;;;12961274;22;20269;-75
2021/04/23 00:41:16;;;;;;;10.90;3.17;;;;;;;;;;12941720;22;20640;-74
2021/04/23 00:46:18;;;;;;;10.57;3.53;;;;;;;;;;12938339;22;20209;-74
2021/04/23 00:51:21;;;;;;;10.40;3.60;;;;;;;;;;12944982;22;20420;-75
2021/04/23 00:56:25;;;;;;;14.83;3.60;;;;;;;;;;12964129;22;20183;-75
2021/04/23 01:01:30;;;;;;;13.10;2.93;;;;;;;;;;12941313;22;20221;-74
2021/04/23 01:06:33;;;;;;;11.50;3.43;;;;;;;;;;12965646;22;20225;-75
2021/04/23 01:11:36;;;;;;;12.10;3.33;;;;;;;;;;12965280;22;20174;-74
2021/04/23 01:16:39;;;;;;;11.67;3.00;;;;;;;;;;12960734;22;20682;-75
2021/04/23 01:21:41;;;;;;;10.23;3.10;;;;;;;;;;12943862;22;20181;-74
2021/04/23 01:26:44;;;;;;;9.00;3.43;;;;;;;;;;12942296;22;20207;-74
2021/04/23 01:31:48;;;;;;;11.43;3.37;;;;;;;;;;12939297;22;20180;-75
2021/04/23 01:36:51;;;;;;;9.77;3.43;;;;;;;;;;12962856;22;20171;-74
2021/04/23 01:41:53;;;;;;;6.87;3.10;;;;;;;;;;12944146;22;20268;-76
2021/04/23 01:46:56;;;;;;;9.70;3.50;;;;;;;;;;12938834;22;20675;-76
2021/04/23 01:52:00;;;;;;;11.33;3.30;;;;;;;;;;12964060;22;20214;-76
2021/04/23 01:57:03;;;;;;;8.83;3.80;;;;;;;;;;12965530;22;20229;-75
2021/04/23 02:02:05;;;;;;;11.67;3.23;;;;;;;;;;12940082;22;20667;-74
2021/04/23 02:07:09;;;;;;;15.57;4.13;;;;;;;;;;12943833;22;20586;-74
2021/04/23 02:12:11;;;;;;;11.87;3.90;;;;;;;;;;12967541;22;20189;-75
2021/04/23 02:17:13;;;;;;;10.87;3.70;;;;;;;;;;12941135;22;20856;-74
2021/04/23 02:22:16;;;;;;;8.57;3.40;;;;;;;;;;12948794;22;20230;-75
2021/04/23 02:27:18;;;;;;;9.90;4.00;;;;;;;;;;12944809;22;20289;-74
2021/04/23 02:32:20;;;;;;;15.63;5.40;;;;;;;;;;12945705;22;20616;-74
2021/04/23 02:37:22;;;;;;;11.47;5.37;;;;;;;;;;12967190;22;20178;-74
2021/04/23 02:42:25;;;;;;;10.70;4.13;;;;;;;;;;12943744;22;20189;-74
2021/04/23 02:47:27;;;;;;;8.80;4.30;;;;;;;;;;12947513;22;20251;-74
2021/04/23 02:52:29;;;;;;;13.37;4.70;;;;;;;;;;12943884;22;20701;-74
2021/04/23 02:57:31;;;;;;;12.83;5.33;;;;;;;;;;12944504;22;20742;-74
2021/04/23 03:02:33;;;;;;;22.40;7.67;;;;;;;;;;12965511;22;20228;-73
2021/04/23 03:07:36;;;;;;;20.27;7.93;;;;;;;;;;12967446;22;20285;-74
2021/04/23 03:12:38;;;;;;;20.40;7.17;;;;;;;;;;12940494;22;20182;-75
2021/04/23 03:17:40;;;;;;;20.37;8.43;;;;;;;;;;12965011;22;20605;-74
2021/04/23 03:22:43;;;;;;;22.17;8.67;;;;;;;;;;12964090;22;20257;-74
2021/04/23 03:27:45;;;;;;;15.03;5.90;;;;;;;;;;12965576;22;20210;-74
2021/04/23 03:32:47;;;;;;;15.07;5.40;;;;;;;;;;12942287;22;20170;-74
2021/04/23 03:37:53;;;;;;;11.60;5.03;;;;;;;;;;12945220;22;20208;-74
2021/04/23 03:42:55;;;;;;;12.87;4.60;;;;;;;;;;12964823;22;20162;-76
2021/04/23 03:47:57;;;;;;;12.80;5.20;;;;;;;;;;12965897;22;20178;-74
2021/04/23 03:53:01;;;;;;;15.90;4.80;;;;;;;;;;12966094;22;20611;-75
2021/04/23 03:58:04;;;;;;;11.53;3.93;;;;;;;;;;12968433;22;20270;-76
2021/04/23 04:03:06;;;;;;;14.03;3.87;;;;;;;;;;12944400;22;20209;-75
2021/04/23 04:08:10;;;;;;;10.00;3.90;;;;;;;;;;12947940;22;20182;-75
2021/04/23 04:13:12;;;;;;;15.27;3.90;;;;;;;;;;12966200;22;20505;-75
2021/04/23 04:18:14;;;;;;;12.43;3.53;;;;;;;;;;12948010;22;20175;-74
2021/04/23 04:23:18;;;;;;;14.67;3.57;;;;;;;;;;12946078;22;20177;-76
2021/04/23 04:28:21;;;;;;;8.07;3.00;;;;;;;;;;12946224;22;20913;-75
2021/04/23 04:33:23;;;;;;;11.17;3.67;;;;;;;;;;12944447;22;20178;-75
2021/04/23 04:38:26;;;;;;;12.97;3.10;;;;;;;;;;12967230;22;20182;-75
2021/04/23 04:43:28;;;;;;;11.07;3.27;;;;;;;;;;12943333;22;20202;-75
2021/04/23 04:48:30;;;;;;;13.63;3.33;;;;;;;;;;12947877;22;20178;-74
2021/04/23 04:53:33;;;;;;;8.00;2.93;;;;;;;;;;12947392;22;20182;-73
2021/04/23 04:58:36;;;;;;;13.10;2.90;;;;;;;;;;12945657;22;20383;-74
2021/04/23 05:03:38;;;;;;;8.13;3.10;;;;;;;;;;12962952;22;20206;-75
2021/04/23 05:08:41;;;;;;;8.70;2.97;;;;;;;;;;12966691;22;20265;-75
2021/04/23 05:13:43;;;;;;;11.30;3.07;;;;;;;;;;12942483;22;20197;-75
2021/04/23 05:18:46;;;;;;;13.23;3.20;;;;;;;;;;12945411;22;20174;-75
2021/04/23 05:23:50;;;;;;;10.13;2.93;;;;;;;;;;12945170;22;20245;-74
2021/04/23 05:28:52;;;;;;;13.93;3.13;;;;;;;;;;12964647;22;20174;-75
2021/04/23 05:33:54;;;;;;;8.23;2.87;;;;;;;;;;12967861;22;20236;-74
2021/04/23 05:38:57;;;;;;;9.83;2.80;;;;;;;;;;12943561;22;20182;-76
2021/04/23 05:43:58;;;;;;;13.53;2.83;;;;;;;;;;12967128;22;20204;-76
2021/04/23 05:49:01;;;;;;;9.57;2.60;;;;;;;;;;12948039;22;20174;-78
2021/04/23 05:54:04;;;;;;;14.60;3.50;;;;;;;;;;12949226;22;20486;-78
2021/04/23 05:59:05;;;;;;;8.90;3.07;;;;;;;;;;12946509;22;20182;-76
2021/04/23 06:04:07;;;;;;;11.57;2.73;;;;;;;;;;12948683;22;20210;-77
2021/04/23 06:09:10;;;;;;;11.03;2.83;;;;;;;;;;12946658;22;20167;-76
2021/04/23 06:14:12;;;;;;;10.03;2.70;;;;;;;;;;12946888;22;20186;-78
2021/04/23 06:19:14;;;;;;;10.00;2.77;;;;;;;;;;12947290;22;20628;-76
2021/04/23 06:24:17;;;;;;;8.53;2.67;;;;;;;;;;12947640;22;20707;-75
2021/04/23 06:29:19;;;;;;;11.40;2.83;;;;;;;;;;12943412;22;20229;-77
2021/04/23 06:34:22;;;;;;;8.60;2.40;;;;;;;;;;12968371;22;20179;-77
2021/04/23 06:39:27;;;;;;;8.90;2.50;;;;;;;;;;12950216;22;20170;-74
2021/04/23 06:44:29;;;;;;;10.70;2.70;;;;;;;;;;12944847;22;20217;-74
2021/04/23 06:49:31;;;;;;;8.33;2.23;;;;;;;;;;12949327;22;20175;-78
2021/04/23 06:54:33;;;;;;;10.23;3.47;;;;;;;;;;12967365;22;20186;-76
2021/04/23 06:59:35;;;;;;;11.77;3.30;;;;;;;;;;12947793;22;20179;-74
2021/04/23 07:04:37;;;;;;;13.77;2.60;;;;;;;;;;12968700;22;20608;-76
2021/04/23 07:09:40;;;;;;;8.50;2.70;;;;;;;;;;12968441;22;20209;-76
2021/04/23 07:14:42;;;;;;;11.37;3.00;;;;;;;;;;12966751;22;20691;-75
2021/04/23 07:19:46;;;;;;;9.67;3.10;;;;;;;;;;12948642;22;20233;-78
2021/04/23 07:24:49;;;;;;;12.67;3.57;;;;;;;;;;12967186;22;20230;-76
2021/04/23 07:29:52;;;;;;;12.00;3.20;;;;;;;;;;12968621;22;20882;-75
2021/04/23 07:34:54;;;;;;;8.03;2.63;;;;;;;;;;12968813;22;20185;-76
2021/04/23 07:39:57;;;;;;;12.57;2.80;;;;;;;;;;12967773;22;20471;-76
2021/04/23 07:44:59;;;;;;;10.77;3.03;;;;;;;;;;12966090;22;20213;-75
2021/04/23 07:50:01;;;;;;;10.77;2.90;;;;;;;;;;12949276;22;20178;-77
2021/04/23 07:55:05;;;;;;;12.40;3.00;;;;;;;;;;12945160;22;20663;-77
2021/04/23 08:00:09;;;;;;;8.60;2.63;;;;;;;;;;12944585;22;20233;-76
2021/04/23 08:05:11;;;;;;;9.67;2.70;;;;;;;;;;12943067;22;20210;-77
2021/04/23 08:10:34;;;;;;;9.80;2.33;;;;;;;;;;12945532;22;20174;-77
2021/04/23 08:15:37;;;;;;;8.80;2.57;;;;;;;;;;12962603;22;20217;-75
2021/04/23 08:20:39;;;;;;;10.33;2.87;;;;;;;;;;12967905;22;20178;-75
2021/04/23 08:25:42;;;;;;;15.23;4.30;;;;;;;;;;12966892;22;20592;-78
2021/04/23 08:30:44;;;;;;;10.07;3.00;;;;;;;;;;12967662;22;20205;-76
2021/04/23 08:35:46;;;;;;;11.77;2.93;;;;;;;;;;12943791;22;20212;-77
2021/04/23 08:40:49;;;;;;;7.70;2.93;;;;;;;;;;12963745;22;20253;-78
2021/04/23 08:45:55;;;;;;;10.27;2.90;;;;;;;;;;12941706;22;20201;-77
2021/04/23 08:50:58;;;;;;;10.27;2.83;;;;;;;;;;12966110;22;20888;-75
2021/04/23 08:56:01;;;;;;;9.33;2.60;;;;;;;;;;12943565;22;20178;-76
2021/04/23 09:01:03;;;;;;;10.43;2.77;;;;;;;;;;12941234;22;20186;-76
2021/04/23 09:06:09;;;;;;;9.23;2.67;;;;;;;;;;12966834;22;20210;-76
2021/04/23 09:11:16;;;;;;;11.67;2.97;;;;;;;;;;12961335;22;20174;-74
2021/04/23 09:16:19;;;;;;;8.63;2.37;;;;;;;;;;12940920;22;20170;-73
2021/04/23 09:21:25;;;;;;;11.47;3.03;;;;;;;;;;12944470;22;20174;-74
2021/04/23 09:26:32;;;;;;;8.50;2.43;;;;;;;;;;12943643;22;20213;-74
2021/04/23 09:31:35;;;;;;;12.90;3.00;;;;;;;;;;12940662;22;20623;-74
2021/04/23 09:36:40;;;;;;;11.57;2.70;;;;;;;;;;12945611;22;20631;-74
2021/04/23 09:41:44;;;;;;;9.47;2.60;;;;;;;;;;12943084;22;20902;-75
2021/04/23 09:46:45;;;;;;;11.07;2.50;;;;;;;;;;12942310;22;20214;-74
2021/04/23 09:51:47;;;;;;;9.00;2.90;;;;;;;;;;12944738;22;20174;-74
2021/04/23 09:56:51;;;;;;;10.77;2.60;;;;;;;;;;12946017;22;20163;-75
2021/04/23 10:01:57;;;;;;;7.83;2.57;;;;;;;;;;12960696;22;20202;-74
2021/04/23 10:07:06;;;;;;;8.57;2.87;;;;;;;;;;12945016;22;20828;-74
2021/04/23 10:12:09;;;;;;;12.17;2.90;;;;;;;;;;12943540;22;20270;-75
2021/04/23 10:17:20;;;;;;;6.93;2.57;;;;;;;;;;12945103;22;20177;-74
2021/04/23 10:22:22;;;;;;;8.33;2.30;;;;;;;;;;12944511;22;20167;-74
2021/04/23 10:27:25;;;;;;;8.20;2.73;;;;;;;;;;12945462;22;20213;-75
2021/04/23 10:32:27;;;;;;;12.37;3.10;;;;;;;;;;12968589;22;20254;-75
2021/04/23 10:37:29;;;;;;;9.10;2.77;;;;;;;;;;12950941;22;20171;-74
2021/04/23 10:42:52;;;;;;;8.23;2.90;;;;;;;;;;12964348;22;20174;-77
2021/04/23 10:47:55;;;;;;;9.90;3.07;;;;;;;;;;12968553;22;20187;-75
2021/04/23 10:53:01;;;;;;;11.27;3.07;;;;;;;;;;12969315;22;20240;-75
2021/04/23 10:58:04;;;;;;;10.27;2.83;;;;;;;;;;12966726;22;20627;-76
2021/04/23 11:03:25;;;;;;;7.03;2.80;;;;;;;;;;12944554;22;20209;-76
2021/04/23 11:08:28;;;;;;;8.27;2.70;;;;;;;;;;12946687;22;20206;-76
2021/04/23 11:13:31;;;;;;;11.07;2.87;;;;;;;;;;12944019;22;20181;-80
2021/04/23 11:18:33;;;;;;;11.70;3.30;;;;;;;;;;12966980;22;20181;-75
2021/04/23 11:23:50;;;;;;;7.27;2.93;;;;;;;;;;12965256;22;20174;-76
2021/04/23 11:29:06;;;;;;;11.90;3.50;;;;;;;;;;12944080;22;20174;-77
2021/04/23 11:34:28;;;;;;;8.93;2.90;;;;;;;;;;12944672;22;20178;-77
2021/04/23 11:39:31;;;;;;;7.30;3.00;;;;;;;;;;12968790;22;20171;-76
2021/04/23 11:44:39;;;;;;;10.53;3.60;;;;;;;;;;12963310;22;20758;-75
2021/04/23 11:49:42;;;;;;;7.77;3.23;;;;;;;;;;12947227;22;20225;-76
2021/04/23 11:54:44;;;;;;;11.83;3.27;;;;;;;;;;12943396;22;20639;-75
2021/04/23 11:59:56;;;;;;;9.10;3.10;;;;;;;;;;12943243;22;20205;-76
2021/04/23 12:04:59;;;;;;;11.40;2.97;;;;;;;;;;12942236;22;20635;-75
2021/04/23 12:10:05;;;;;;;9.20;3.30;;;;;;;;;;12964478;22;20257;-74
2021/04/23 12:15:08;;;;;;;8.07;2.90;;;;;;;;;;12961181;22;20447;-75
2021/04/23 12:20:15;;;;;;;10.60;3.23;;;;;;;;;;12965182;22;20274;-75
2021/04/23 12:25:19;;;;;;;10.00;3.07;;;;;;;;;;12964352;22;20203;-75
2021/04/23 12:30:33;;;;;;;7.43;3.23;;;;;;;;;;12966669;22;20827;-76
2021/04/23 12:35:37;;;;;;;10.07;3.30;;;;;;;;;;12944533;22;20219;-74
2021/04/23 12:40:40;;;;;;;6.80;3.23;;;;;;;;;;12969026;22;20261;-74
2021/04/23 12:45:42;;;;;;;9.00;3.30;;;;;;;;;;12943500;22;20206;-74
2021/04/23 12:50:46;;;;;;;9.70;3.77;;;;;;;;;;12958401;22;20179;-74
2021/04/23 12:55:49;;;;;;;10.23;3.53;;;;;;;;;;12964439;22;20210;-74
2021/04/23 13:00:50;;;;;;;8.37;3.30;;;;;;;;;;12940020;22;20178;-74
2021/04/23 13:05:53;;;;;;;11.37;3.10;;;;;;;;;;12944645;22;20214;-78
2021/04/23 13:10:57;;;;;;;9.43;3.10;;;;;;;;;;12941433;22;20178;-74
2021/04/23 13:16:04;;;;;;;8.27;3.27;;;;;;;;;;12941455;22;20175;-75
2021/04/23 13:21:07;;;;;;;13.17;3.50;;;;;;;;;;12964112;22;20587;-75
2021/04/23 13:26:10;;;;;;;10.87;3.50;;;;;;;;;;12964262;22;20663;-80
2021/04/23 13:31:15;;;;;;;12.53;3.63;;;;;;;;;;12962748;22;20178;-75
2021/04/23 13:36:19;;;;;;;9.10;3.57;;;;;;;;;;12963588;22;20170;-74
2021/04/23 13:41:22;;;;;;;12.67;3.80;;;;;;;;;;12940169;22;20180;-75
2021/04/23 13:46:30;;;;;;;12.13;3.50;;;;;;;;;;12942174;22;20210;-74
2021/04/23 13:51:34;;;;;;;12.43;3.67;;;;;;;;;;12965596;22;20170;-76
2021/04/23 13:56:36;;;;;;;10.93;3.77;;;;;;;;;;12944903;22;20181;-75
2021/04/23 14:01:40;;;;;;;9.10;3.40;;;;;;;;;;12941898;22;20777;-75
2021/04/23 14:06:43;;;;;;;11.83;3.50;;;;;;;;;;12949141;22;20248;-74
2021/04/23 14:11:47;;;;;;;9.37;3.60;;;;;;;;;;12947604;22;20228;-75
2021/04/23 14:16:53;;;;;;;14.33;4.10;;;;;;;;;;12947119;22;20175;-74
2021/04/23 14:21:56;;;;;;;9.10;3.47;;;;;;;;;;12968100;22;20174;-75
2021/04/23 14:26:58;;;;;;;10.00;3.57;;;;;;;;;;12949241;22;20202;-75
2021/04/23 14:31:59;;;;;;;13.90;3.33;;;;;;;;;;12954688;22;20178;-75
2021/04/23 14:37:02;;;;;;;12.97;3.43;;;;;;;;;;12949978;22;20179;-75
2021/04/23 14:42:05;;;;;;;6.80;3.23;;;;;;;;;;12946862;22;20181;-75
2021/04/23 14:47:06;;;;;;;10.43;3.57;;;;;;;;;;12946966;22;20217;-74
2021/04/23 14:52:09;;;;;;;13.53;5.60;;;;;;;;;;12946679;22;20669;-75
2021/04/23 14:57:11;;;;;;;9.50;3.30;;;;;;;;;;12949498;22;20209;-76
2021/04/23 15:02:13;;;;;;;10.27;3.17;;;;;;;;;;12944440;22;20194;-75
2021/04/23 15:07:15;;;;;;;7.23;3.00;;;;;;;;;;12949774;22;20257;-74
2021/04/23 15:12:17;;;;;;;13.60;3.33;;;;;;;;;;12965926;22;20652;-74
2021/04/23 15:17:19;;;;;;;8.57;3.07;;;;;;;;;;12948181;22;20182;-75
2021/04/23 15:22:22;;;;;;;9.33;3.10;;;;;;;;;;12945468;22;20826;-76
2021/04/23 15:27:23;;;;;;;6.33;2.70;;;;;;;;;;12947453;22;20210;-75
2021/04/23 15:32:25;;;;;;;7.00;2.93;;;;;;;;;;12946254;22;20175;-77
2021/04/23 15:37:28;;;;;;;9.30;2.70;;;;;;;;;;12948928;22;20237;-75
2021/04/23 15:42:30;;;;;;;10.60;3.07;;;;;;;;;;12946276;22;20186;-75
2021/04/23 15:47:32;;;;;;;6.50;2.67;;;;;;;;;;12944161;22;20213;-75
2021/04/23 15:52:35;;;;;;;8.60;3.07;;;;;;;;;;12947704;22;20511;-74
2021/04/23 15:57:37;;;;;;;8.57;3.00;;;;;;;;;;12941090;22;20182;-74
2021/04/23 16:02:40;;;;;;;8.80;2.73;;;;;;;;;;12945775;22;20202;-73
2021/04/23 16:07:43;;;;;;;8.83;2.63;;;;;;;;;;12944949;22;21058;-74
2021/04/23 16:12:45;;;;;;;8.07;2.70;;;;;;;;;;12945087;22;20178;-74
2021/04/23 16:17:50;;;;;;;6.47;2.67;;;;;;;;;;12945527;22;20186;-75
2021/04/23 16:22:56;;;;;;;7.87;2.80;;;;;;;;;;12969174;22;20173;-75
2021/04/23 16:28:01;;;;;;;7.40;2.60;;;;;;;;;;12966610;22;20198;-75
2021/04/23 16:33:03;;;;;;;4.47;2.60;;;;;;;;;;12945711;22;20174;-74
2021/04/23 16:38:05;;;;;;;12.90;2.77;;;;;;;;;;12946701;22;20269;-74
2021/04/23 16:43:08;;;;;;;8.17;2.80;;;;;;;;;;12967311;22;20189;-75
2021/04/23 16:48:10;;;;;;;9.13;2.77;;;;;;;;;;12944185;22;20244;-75
2021/04/23 16:53:13;;;;;;;5.33;2.70;;;;;;;;;;12947252;22;20201;-75
2021/04/23 16:58:15;;;;;;;6.93;2.70;;;;;;;;;;12965808;22;20174;-74
2021/04/23 17:03:17;;;;;;;7.77;2.67;;;;;;;;;;12946491;22;20202;-74
2021/04/23 17:08:19;;;;;;;6.93;2.93;;;;;;;;;;12947133;22;20249;-75
2021/04/23 17:13:21;;;;;;;7.53;2.97;;;;;;;;;;12947380;22;20170;-75
2021/04/23 17:18:23;;;;;;;4.83;2.70;;;;;;;;;;12947525;22;20166;-75
2021/04/23 17:23:26;;;;;;;7.90;3.30;;;;;;;;;;12949697;22;20208;-74
2021/04/23 17:28:28;;;;;;;8.47;3.03;;;;;;;;;;12945333;22;20648;-75
2021/04/23 17:33:29;;;;;;;7.20;3.40;;;;;;;;;;12947648;22;20513;-75
2021/04/23 17:38:32;;;;;;;12.30;3.50;;;;;;;;;;12948074;22;20171;-75
2021/04/23 17:43:34;;;;;;;9.90;3.50;;;;;;;;;;12946607;22;20209;-75
2021/04/23 17:48:36;;;;;;;7.33;3.50;;;;;;;;;;12946075;22;20202;-75
2021/04/23 17:53:40;;;;;;;8.00;3.63;;;;;;;;;;12950739;22;20180;-75
2021/04/23 17:58:42;;;;;;;9.23;3.20;;;;;;;;;;12945148;22;20758;-75
2021/04/23 18:51:59;;;;;;;6.93;3.23;;;;;;;;;;12951936;22;20170;-74
2021/04/23 18:57:01;;;;;;;8.93;3.70;;;;;;;;;;12967216;22;20209;-75
2021/04/23 19:02:02;;;;;;;5.93;3.27;;;;;;;;;;12948574;22;20217;-75
2021/04/23 19:07:05;;;;;;;8.93;4.00;;;;;;;;;;12950021;22;20210;-75
2021/04/23 19:12:07;;;;;;;9.97;3.63;;;;;;;;;;12948873;22;20661;-75
2021/04/23 19:17:09;;;;;;;7.40;3.27;;;;;;;;;;12944556;22;20201;-75
2021/04/23 19:22:12;;;;;;;7.10;3.40;;;;;;;;;;12968461;22;20173;-77
2021/04/23 19:27:13;;;;;;;6.47;3.40;;;;;;;;;;12965416;22;20277;-78
2021/04/23 19:32:15;;;;;;;9.43;3.47;;;;;;;;;;12945442;22;20174;-74
2021/04/23 19:37:18;;;;;;;7.73;3.30;;;;;;;;;;12945098;22;20178;-74
2021/04/23 19:42:20;;;;;;;17.57;3.60;;;;;;;;;;12967292;22;20179;-73
2021/04/23 19:47:21;;;;;;;7.57;3.80;;;;;;;;;;12940821;22;20683;-76
2021/04/23 19:52:24;;;;;;;9.33;4.33;;;;;;;;;;12949064;22;20272;-74
2021/04/23 19:57:26;;;;;;;5.50;3.63;;;;;;;;;;12941384;22;20897;-74
2021/04/23 20:02:28;;;;;;;7.40;3.50;;;;;;;;;;12945510;22;20682;-73
2021/04/23 20:07:31;;;;;;;11.13;3.90;;;;;;;;;;12945188;22;20206;-74
2021/04/23 20:12:33;;;;;;;9.50;4.03;;;;;;;;;;12942775;22;20205;-74
2021/04/23 20:17:36;;;;;;;8.13;3.87;;;;;;;;;;12948115;22;20282;-76
2021/04/23 20:22:39;;;;;;;10.20;4.17;;;;;;;;;;12945071;22;20175;-75
2021/04/23 20:27:41;;;;;;;7.83;4.17;;;;;;;;;;12944510;22;20766;-76
2021/04/23 20:32:43;;;;;;;7.83;4.30;;;;;;;;;;12942204;22;20836;-76
2021/04/23 20:37:46;;;;;;;9.67;4.17;;;;;;;;;;12969577;22;20646;-75
2021/04/23 20:42:48;;;;;;;9.03;4.50;;;;;;;;;;12942312;22;20194;-74
2021/04/23 20:47:51;;;;;;;8.30;4.20;;;;;;;;;;12941807;22;20370;-79
2021/04/23 20:52:54;;;;;;;8.23;3.93;;;;;;;;;;12943386;22;20240;-75
2021/04/23 20:57:57;;;;;;;12.60;4.50;;;;;;;;;;12945735;22;20641;-74
2021/04/23 21:02:59;;;;;;;7.27;4.17;;;;;;;;;;12942547;22;20191;-75
2021/04/23 21:08:01;;;;;;;9.83;4.03;;;;;;;;;;12945148;22;20212;-74
2021/04/23 21:13:03;;;;;;;6.63;4.10;;;;;;;;;;12939810;22;20186;-73
2021/04/23 21:18:05;;;;;;;6.83;4.00;;;;;;;;;;12945408;22;20174;-74
2021/04/23 21:23:08;;;;;;;6.77;3.63;;;;;;;;;;12940075;22;20183;-73
2021/04/23 21:28:10;;;;;;;7.03;3.70;;;;;;;;;;12944229;22;20252;-74
2021/04/23 21:33:12;;;;;;;7.80;3.37;;;;;;;;;;12941860;22;20178;-73
2021/04/23 21:38:15;;;;;;;9.57;4.10;;;;;;;;;;12944102;22;20205;-73
2021/04/23 21:43:17;;;;;;;8.63;3.57;;;;;;;;;;12940917;22;20183;-73
2021/04/23 21:48:19;;;;;;;7.40;3.80;;;;;;;;;;12965256;22;20206;-74
2021/04/23 21:53:22;;;;;;;7.57;3.60;;;;;;;;;;12939973;22;20230;-74
2021/04/23 21:58:23;;;;;;;8.07;3.60;;;;;;;;;;12942842;22;20184;-74
2021/04/23 22:03:25;;;;;;;10.70;4.20;;;;;;;;;;12939226;22;20690;-75
2021/04/23 22:08:28;;;;;;;9.97;4.23;;;;;;;;;;12967523;22;20195;-74
2021/04/23 22:13:30;;;;;;;8.23;4.23;;;;;;;;;;12939450;22;20178;-74
2021/04/23 22:18:32;;;;;;;12.00;4.20;;;;;;;;;;12945254;22;20179;-74
2021/04/23 22:23:35;;;;;;;9.30;4.00;;;;;;;;;;12944497;22;20182;-73
2021/04/23 22:28:37;;;;;;;10.50;4.47;;;;;;;;;;12971950;22;20198;-74
2021/04/23 22:33:39;;;;;;;8.30;4.57;;;;;;;;;;12953285;22;20171;-75
2021/04/23 22:38:42;;;;;;;8.60;4.60;;;;;;;;;;12972251;22;20671;-74
2021/04/23 22:43:43;;;;;;;8.67;4.23;;;;;;;;;;12950269;22;20189;-75
2021/04/23 22:48:46;;;;;;;9.63;4.93;;;;;;;;;;12948198;22;20277;-74
2021/04/23 22:53:49;;;;;;;9.27;4.90;;;;;;;;;;12951218;22;20666;-74
2021/04/23 22:58:52;;;;;;;9.33;4.90;;;;;;;;;;12969286;22;20178;-74
2021/04/23 23:03:55;;;;;;;8.77;4.80;;;;;;;;;;12952197;22;20205;-74
2021/04/23 23:08:58;;;;;;;10.73;5.23;;;;;;;;;;12971525;22;20228;-73
2021/04/23 23:14:01;;;;;;;11.63;5.53;;;;;;;;;;12950078;22;20170;-73
2021/04/23 23:19:03;;;;;;;11.50;5.87;;;;;;;;;;12950396;22;20174;-74
2021/04/23 23:24:06;;;;;;;12.33;5.77;;;;;;;;;;12951628;22;20181;-74
2021/04/23 23:29:08;;;;;;;10.20;5.30;;;;;;;;;;12947720;22;20214;-74
2021/04/23 23:34:14;;;;;;;10.93;5.33;;;;;;;;;;12972367;22;20170;-74
2021/04/23 23:39:17;;;;;;;9.50;5.63;;;;;;;;;;12949469;22;20182;-74
2021/04/23 23:44:19;;;;;;;12.07;5.80;;;;;;;;;;12948607;22;20196;-74
2021/04/23 23:49:21;;;;;;;12.23;5.80;;;;;;;;;;12950450;22;20202;-74
2021/04/23 23:54:23;;;;;;;12.00;5.90;;;;;;;;;;12971816;22;20562;-74
2021/04/23 23:59:25;;;;;;;13.70;6.20;;;;;;;;;;12948724;22;20206;-74
